RYR5649 LIPQ-LATI
Flight info
| Callsign | RYR5649 |
|---|---|
| Flight time | 1h 1m |
| Altitude | 31000 |
| Route | RCH P735 RIFEN DCT RUGOG DCT RASTU DCT GLOMY DCT PETAK |
| Aircraft | B738/M-SDE2E3FGHIRWXY/LB1 |
Departure
| Time | 2026-05-09 07:06 |
|---|---|
| Airport | Trieste Airport (LIPQ) |
Arrival
| Time | 2026-05-09 08:08 |
|---|---|
| Airport | Tirana International Airport Mother Teresa (LATI) |
| Time | Latitude | Longitude | Altitude | Speed | Heading |
|---|---|---|---|---|---|
| 2026-05-09 06:15 | 45.82235 | 13.48619 | 46 ft | 0 kts | 148° |
| 2026-05-09 07:02 | 45.82234 | 13.48618 | 46 ft | 1 kts | 160° |
| 2026-05-09 07:02 | 45.82232 | 13.48606 | 46 ft | 2 kts | 279° |
| 2026-05-09 07:02 | 45.82253 | 13.48587 | 46 ft | 5 kts | 334° |
| 2026-05-09 07:03 | 45.82309 | 13.48573 | 46 ft | 12 kts | 1° |
| 2026-05-09 07:03 | 45.82409 | 13.48571 | 46 ft | 16 kts | 359° |
| 2026-05-09 07:03 | 45.82520 | 13.48570 | 46 ft | 16 kts | 359° |
| 2026-05-09 07:03 | 45.82625 | 13.48574 | 46 ft | 15 kts | 0° |
| 2026-05-09 07:04 | 45.82640 | 13.48574 | 46 ft | 0 kts | 0° |
| 2026-05-09 07:05 | 45.82666 | 13.48574 | 46 ft | 9 kts | 0° |
| 2026-05-09 07:05 | 45.82747 | 13.48565 | 46 ft | 14 kts | 334° |
| 2026-05-09 07:05 | 45.82775 | 13.48493 | 45 ft | 0 kts | 274° |
| 2026-05-09 07:05 | 45.82777 | 13.48399 | 44 ft | 35 kts | 271° |
| 2026-05-09 07:06 | 45.82782 | 13.47600 | 47 ft | 123 kts | 270° |
| 2026-05-09 07:06 | 45.82802 | 13.46052 | 172 ft | 183 kts | 271° |
| 2026-05-09 07:06 | 45.82834 | 13.44128 | 1009 ft | 203 kts | 272° |
| 2026-05-09 07:06 | 45.82888 | 13.42030 | 1879 ft | 212 kts | 273° |
| 2026-05-09 07:07 | 45.82887 | 13.39984 | 2963 ft | 206 kts | 269° |
| 2026-05-09 07:07 | 45.82864 | 13.37890 | 3738 ft | 220 kts | 269° |
| 2026-05-09 07:07 | 45.82850 | 13.35530 | 4010 ft | 253 kts | 270° |
| 2026-05-09 07:07 | 45.82846 | 13.32929 | 4691 ft | 265 kts | 270° |
| 2026-05-09 07:08 | 45.82893 | 13.30279 | 5624 ft | 269 kts | 279° |
| 2026-05-09 07:08 | 45.83705 | 13.27887 | 6494 ft | 273 kts | 315° |
| 2026-05-09 07:08 | 45.85354 | 13.26567 | 7364 ft | 277 kts | 348° |
| 2026-05-09 07:08 | 45.87259 | 13.26784 | 8220 ft | 281 kts | 22° |
| 2026-05-09 07:09 | 45.88791 | 13.28491 | 9082 ft | 284 kts | 56° |
| 2026-05-09 07:09 | 45.89440 | 13.31152 | 9950 ft | 288 kts | 88° |
| 2026-05-09 07:09 | 45.88991 | 13.33948 | 10674 ft | 293 kts | 121° |
| 2026-05-09 07:09 | 45.87710 | 13.36229 | 11479 ft | 295 kts | 131° |
| 2026-05-09 07:10 | 45.86475 | 13.38605 | 12271 ft | 299 kts | 123° |
| 2026-05-09 07:10 | 45.85408 | 13.41202 | 13060 ft | 304 kts | 119° |
| 2026-05-09 07:10 | 45.84421 | 13.43907 | 13853 ft | 308 kts | 117° |
| 2026-05-09 07:10 | 45.83585 | 13.46754 | 14532 ft | 314 kts | 102° |
| 2026-05-09 07:11 | 45.83398 | 13.49895 | 15230 ft | 319 kts | 86° |
| 2026-05-09 07:11 | 45.83795 | 13.53020 | 15957 ft | 321 kts | 74° |
| 2026-05-09 07:11 | 45.84413 | 13.56115 | 16640 ft | 326 kts | 75° |
| 2026-05-09 07:11 | 45.84612 | 13.59364 | 17276 ft | 332 kts | 96° |
| 2026-05-09 07:12 | 45.84025 | 13.62651 | 17537 ft | 350 kts | 114° |
| 2026-05-09 07:12 | 45.82977 | 13.65869 | 18006 ft | 360 kts | 115° |
| 2026-05-09 07:12 | 45.81901 | 13.69139 | 18623 ft | 365 kts | 115° |
| 2026-05-09 07:12 | 45.80814 | 13.72451 | 19217 ft | 369 kts | 115° |
| 2026-05-09 07:13 | 45.79716 | 13.75807 | 19787 ft | 374 kts | 115° |
| 2026-05-09 07:13 | 45.78610 | 13.79200 | 20344 ft | 379 kts | 115° |
| 2026-05-09 07:13 | 45.77502 | 13.82601 | 20898 ft | 384 kts | 115° |
| 2026-05-09 07:13 | 45.76368 | 13.86082 | 21454 ft | 388 kts | 115° |
| 2026-05-09 07:14 | 45.75209 | 13.89643 | 21745 ft | 401 kts | 115° |
| 2026-05-09 07:14 | 45.74014 | 13.93306 | 22128 ft | 409 kts | 115° |
| 2026-05-09 07:14 | 45.72803 | 13.97017 | 22678 ft | 413 kts | 115° |
| 2026-05-09 07:14 | 45.71581 | 14.00756 | 23250 ft | 417 kts | 115° |
| 2026-05-09 07:15 | 45.70344 | 14.04536 | 23750 ft | 421 kts | 115° |
| 2026-05-09 07:15 | 45.69096 | 14.08348 | 24153 ft | 426 kts | 116° |
| 2026-05-09 07:15 | 45.67832 | 14.12199 | 24594 ft | 429 kts | 116° |
| 2026-05-09 07:15 | 45.66559 | 14.16073 | 25064 ft | 431 kts | 116° |
| 2026-05-09 07:16 | 45.65279 | 14.19963 | 25517 ft | 434 kts | 116° |
| 2026-05-09 07:16 | 45.64408 | 14.22606 | 25820 ft | 436 kts | 116° |
| 2026-05-09 07:16 | 45.63110 | 14.26541 | 26223 ft | 440 kts | 116° |
| 2026-05-09 07:16 | 45.61815 | 14.30460 | 26624 ft | 443 kts | 116° |
| 2026-05-09 07:17 | 45.60492 | 14.34458 | 27040 ft | 447 kts | 116° |
| 2026-05-09 07:17 | 45.59163 | 14.38467 | 27486 ft | 448 kts | 116° |
| 2026-05-09 07:17 | 45.57826 | 14.42496 | 28041 ft | 447 kts | 116° |
| 2026-05-09 07:17 | 45.56498 | 14.46494 | 28631 ft | 446 kts | 117° |
| 2026-05-09 07:18 | 45.55170 | 14.50485 | 29179 ft | 444 kts | 117° |
| 2026-05-09 07:18 | 45.53843 | 14.54465 | 29727 ft | 444 kts | 117° |
| 2026-05-09 07:18 | 45.52451 | 14.58391 | 30116 ft | 444 kts | 123° |
| 2026-05-09 07:18 | 45.50640 | 14.61928 | 30459 ft | 441 kts | 133° |
| 2026-05-09 07:19 | 45.48643 | 14.65229 | 30952 ft | 438 kts | 134° |
| 2026-05-09 07:19 | 45.46624 | 14.68499 | 31086 ft | 443 kts | 134° |
| 2026-05-09 07:19 | 45.42473 | 14.75193 | 31111 ft | 458 kts | 134° |
| 2026-05-09 07:20 | 45.38212 | 14.82126 | 31100 ft | 472 kts | 134° |
| 2026-05-09 07:20 | 45.33843 | 14.89275 | 31108 ft | 484 kts | 133° |
| 2026-05-09 07:21 | 45.29386 | 14.96569 | 31099 ft | 490 kts | 133° |
| 2026-05-09 07:21 | 45.24917 | 15.03871 | 31104 ft | 490 kts | 133° |
| 2026-05-09 07:22 | 45.20435 | 15.11171 | 31102 ft | 490 kts | 134° |
| 2026-05-09 07:22 | 45.15961 | 15.18435 | 31103 ft | 489 kts | 134° |
| 2026-05-09 07:23 | 45.11498 | 15.25659 | 31091 ft | 486 kts | 134° |
| 2026-05-09 07:23 | 45.07052 | 15.32841 | 31099 ft | 483 kts | 134° |
| 2026-05-09 07:24 | 45.02632 | 15.39960 | 31108 ft | 481 kts | 134° |
| 2026-05-09 07:24 | 44.98220 | 15.47049 | 31103 ft | 480 kts | 134° |
| 2026-05-09 07:25 | 44.93807 | 15.54120 | 31108 ft | 480 kts | 134° |
| 2026-05-09 07:25 | 44.89386 | 15.61186 | 31095 ft | 481 kts | 134° |
| 2026-05-09 07:26 | 44.84951 | 15.68255 | 31108 ft | 482 kts | 134° |
| 2026-05-09 07:26 | 44.80531 | 15.75285 | 31095 ft | 483 kts | 134° |
| 2026-05-09 07:27 | 44.76049 | 15.82395 | 31094 ft | 482 kts | 134° |
| 2026-05-09 07:27 | 44.71598 | 15.89439 | 31100 ft | 482 kts | 134° |
| 2026-05-09 07:28 | 44.67138 | 15.96478 | 31110 ft | 482 kts | 134° |
| 2026-05-09 07:28 | 44.62674 | 16.03507 | 31096 ft | 482 kts | 134° |
| 2026-05-09 07:29 | 44.58235 | 16.10478 | 31099 ft | 482 kts | 134° |
| 2026-05-09 07:29 | 44.53730 | 16.17535 | 31101 ft | 482 kts | 134° |
| 2026-05-09 07:30 | 44.49284 | 16.24484 | 31113 ft | 482 kts | 134° |
| 2026-05-09 07:30 | 44.44794 | 16.31482 | 31104 ft | 483 kts | 134° |
| 2026-05-09 07:31 | 44.40296 | 16.38477 | 31105 ft | 484 kts | 134° |
| 2026-05-09 07:31 | 44.35794 | 16.45460 | 31106 ft | 483 kts | 134° |
| 2026-05-09 07:32 | 44.31293 | 16.52424 | 31094 ft | 483 kts | 134° |
| 2026-05-09 07:32 | 44.26789 | 16.59376 | 31110 ft | 482 kts | 134° |
| 2026-05-09 07:33 | 44.20034 | 16.69770 | 31101 ft | 482 kts | 134° |
| 2026-05-09 07:34 | 44.15528 | 16.76682 | 31108 ft | 481 kts | 134° |
| 2026-05-09 07:34 | 44.11030 | 16.83565 | 31110 ft | 480 kts | 134° |
| 2026-05-09 07:35 | 44.06570 | 16.90372 | 31104 ft | 480 kts | 134° |
| 2026-05-09 07:35 | 44.02043 | 16.97267 | 31111 ft | 480 kts | 134° |
| 2026-05-09 07:36 | 43.97538 | 17.04110 | 31104 ft | 480 kts | 134° |
| 2026-05-09 07:36 | 43.93029 | 17.10942 | 31112 ft | 480 kts | 134° |
| 2026-05-09 07:37 | 43.88506 | 17.17778 | 31100 ft | 481 kts | 134° |
| 2026-05-09 07:37 | 43.83982 | 17.24599 | 31099 ft | 481 kts | 134° |
| 2026-05-09 07:38 | 43.79481 | 17.31370 | 31110 ft | 480 kts | 134° |
| 2026-05-09 07:38 | 43.74947 | 17.38172 | 31105 ft | 481 kts | 134° |
| 2026-05-09 07:39 | 43.70410 | 17.44962 | 31086 ft | 480 kts | 134° |
| 2026-05-09 07:39 | 43.65875 | 17.51731 | 31093 ft | 480 kts | 134° |
| 2026-05-09 07:40 | 43.61330 | 17.58496 | 31090 ft | 480 kts | 134° |
| 2026-05-09 07:40 | 43.56785 | 17.65227 | 31087 ft | 479 kts | 136° |
| 2026-05-09 07:41 | 43.51591 | 17.70870 | 31093 ft | 474 kts | 148° |
| 2026-05-09 07:41 | 43.46130 | 17.75981 | 31084 ft | 474 kts | 148° |
| 2026-05-09 07:42 | 43.40676 | 17.81093 | 31094 ft | 475 kts | 148° |
| 2026-05-09 07:42 | 43.35227 | 17.86247 | 31050 ft | 476 kts | 147° |
| 2026-05-09 07:43 | 43.29778 | 17.91417 | 31047 ft | 476 kts | 147° |
| 2026-05-09 07:43 | 43.24324 | 17.96582 | 31053 ft | 477 kts | 147° |
| 2026-05-09 07:44 | 43.18895 | 18.01712 | 31053 ft | 477 kts | 147° |
| 2026-05-09 07:44 | 43.13428 | 18.06862 | 31053 ft | 477 kts | 147° |
| 2026-05-09 07:45 | 43.07970 | 18.11997 | 31063 ft | 476 kts | 147° |
| 2026-05-09 07:45 | 43.02514 | 18.17117 | 31065 ft | 475 kts | 147° |
| 2026-05-09 07:46 | 42.97065 | 18.22219 | 31063 ft | 475 kts | 147° |
| 2026-05-09 07:46 | 42.91609 | 18.27314 | 31055 ft | 474 kts | 147° |
| 2026-05-09 07:47 | 42.86169 | 18.32386 | 31053 ft | 474 kts | 147° |
| 2026-05-09 07:47 | 42.83484 | 18.34887 | 31024 ft | 460 kts | 147° |
| 2026-05-09 07:47 | 42.80885 | 18.37308 | 31037 ft | 444 kts | 147° |
| 2026-05-09 07:47 | 42.78384 | 18.39637 | 31021 ft | 429 kts | 147° |
| 2026-05-09 07:48 | 42.75944 | 18.41905 | 30765 ft | 423 kts | 148° |
| 2026-05-09 07:48 | 42.73523 | 18.44149 | 30358 ft | 420 kts | 148° |
| 2026-05-09 07:48 | 42.71103 | 18.46388 | 29817 ft | 421 kts | 148° |
| 2026-05-09 07:48 | 42.68683 | 18.48623 | 29269 ft | 420 kts | 148° |
| 2026-05-09 07:49 | 42.66267 | 18.50853 | 28704 ft | 420 kts | 148° |
| 2026-05-09 07:49 | 42.63844 | 18.53088 | 28120 ft | 421 kts | 148° |
| 2026-05-09 07:49 | 42.61423 | 18.55319 | 27642 ft | 419 kts | 148° |
| 2026-05-09 07:49 | 42.59022 | 18.57532 | 27180 ft | 417 kts | 148° |
| 2026-05-09 07:50 | 42.56630 | 18.59735 | 26739 ft | 414 kts | 148° |
| 2026-05-09 07:50 | 42.54258 | 18.61917 | 26297 ft | 411 kts | 148° |
| 2026-05-09 07:50 | 42.51896 | 18.64088 | 25883 ft | 409 kts | 148° |
| 2026-05-09 07:50 | 42.49543 | 18.66248 | 25450 ft | 407 kts | 148° |
| 2026-05-09 07:51 | 42.47200 | 18.68396 | 25031 ft | 405 kts | 148° |
| 2026-05-09 07:51 | 42.44897 | 18.70506 | 24606 ft | 405 kts | 148° |
| 2026-05-09 07:51 | 42.42563 | 18.72643 | 24176 ft | 405 kts | 148° |
| 2026-05-09 07:51 | 42.40235 | 18.74773 | 23749 ft | 404 kts | 148° |
| 2026-05-09 07:52 | 42.37908 | 18.76898 | 23270 ft | 404 kts | 148° |
| 2026-05-09 07:52 | 42.35584 | 18.79020 | 22819 ft | 402 kts | 148° |
| 2026-05-09 07:52 | 42.33272 | 18.81128 | 22390 ft | 399 kts | 148° |
| 2026-05-09 07:52 | 42.30980 | 18.83216 | 21980 ft | 396 kts | 148° |
| 2026-05-09 07:53 | 42.28701 | 18.85292 | 21566 ft | 394 kts | 147° |
| 2026-05-09 07:53 | 42.26435 | 18.87353 | 21145 ft | 391 kts | 147° |
| 2026-05-09 07:53 | 42.24190 | 18.89393 | 20743 ft | 389 kts | 147° |
| 2026-05-09 07:53 | 42.21951 | 18.91427 | 20342 ft | 386 kts | 147° |
| 2026-05-09 07:54 | 42.19727 | 18.93444 | 19934 ft | 384 kts | 147° |
| 2026-05-09 07:54 | 42.17516 | 18.95448 | 19534 ft | 382 kts | 147° |
| 2026-05-09 07:54 | 42.15319 | 18.97438 | 19137 ft | 380 kts | 147° |
| 2026-05-09 07:54 | 42.13130 | 18.99419 | 18738 ft | 378 kts | 146° |
| 2026-05-09 07:55 | 42.10951 | 19.01388 | 18337 ft | 376 kts | 146° |
| 2026-05-09 07:55 | 42.08770 | 19.03358 | 17659 ft | 380 kts | 146° |
| 2026-05-09 07:55 | 42.06579 | 19.05334 | 17216 ft | 378 kts | 146° |
| 2026-05-09 07:55 | 42.04407 | 19.07293 | 16818 ft | 374 kts | 146° |
| 2026-05-09 07:56 | 42.02261 | 19.09225 | 16425 ft | 368 kts | 146° |
| 2026-05-09 07:56 | 42.00166 | 19.11112 | 16031 ft | 356 kts | 146° |
| 2026-05-09 07:56 | 41.98143 | 19.12934 | 15689 ft | 344 kts | 146° |
| 2026-05-09 07:56 | 41.96176 | 19.14703 | 15256 ft | 336 kts | 146° |
| 2026-05-09 07:57 | 41.94266 | 19.16419 | 14921 ft | 325 kts | 146° |
| 2026-05-09 07:57 | 41.92396 | 19.18097 | 14610 ft | 322 kts | 146° |
| 2026-05-09 07:57 | 41.90540 | 19.19761 | 14292 ft | 320 kts | 146° |
| 2026-05-09 07:57 | 41.88700 | 19.21409 | 13983 ft | 315 kts | 146° |
| 2026-05-09 07:58 | 41.86893 | 19.23026 | 13639 ft | 310 kts | 146° |
| 2026-05-09 07:58 | 41.85104 | 19.24625 | 13303 ft | 308 kts | 146° |
| 2026-05-09 07:58 | 41.83327 | 19.26212 | 12980 ft | 306 kts | 146° |
| 2026-05-09 07:58 | 41.81564 | 19.27788 | 12669 ft | 304 kts | 146° |
| 2026-05-09 07:59 | 41.79807 | 19.29358 | 12357 ft | 302 kts | 146° |
| 2026-05-09 07:59 | 41.78067 | 19.30917 | 12049 ft | 300 kts | 145° |
| 2026-05-09 07:59 | 41.76483 | 19.32753 | 11639 ft | 307 kts | 131° |
| 2026-05-09 07:59 | 41.75144 | 19.35018 | 11156 ft | 311 kts | 127° |
| 2026-05-09 08:00 | 41.73839 | 19.37266 | 11034 ft | 299 kts | 129° |
| 2026-05-09 08:00 | 41.72498 | 19.39331 | 10866 ft | 292 kts | 131° |
| 2026-05-09 08:00 | 41.71197 | 19.41416 | 10648 ft | 290 kts | 129° |
| 2026-05-09 08:00 | 41.69942 | 19.43465 | 10444 ft | 287 kts | 129° |
| 2026-05-09 08:01 | 41.68672 | 19.45520 | 10172 ft | 287 kts | 129° |
| 2026-05-09 08:01 | 41.67397 | 19.47566 | 9959 ft | 285 kts | 130° |
| 2026-05-09 08:01 | 41.66130 | 19.49591 | 9789 ft | 279 kts | 130° |
| 2026-05-09 08:01 | 41.64901 | 19.51552 | 9530 ft | 272 kts | 130° |
| 2026-05-09 08:02 | 41.63956 | 19.53731 | 9141 ft | 275 kts | 102° |
| 2026-05-09 08:02 | 41.63845 | 19.56229 | 9007 ft | 264 kts | 84° |
| 2026-05-09 08:02 | 41.64030 | 19.58659 | 8533 ft | 266 kts | 82° |
| 2026-05-09 08:02 | 41.64252 | 19.61162 | 7865 ft | 276 kts | 82° |
| 2026-05-09 08:03 | 41.64469 | 19.63756 | 7129 ft | 286 kts | 83° |
| 2026-05-09 08:03 | 41.64670 | 19.66387 | 6687 ft | 282 kts | 86° |
| 2026-05-09 08:03 | 41.64330 | 19.68937 | 6110 ft | 282 kts | 118° |
| 2026-05-09 08:03 | 41.63028 | 19.70839 | 5517 ft | 280 kts | 151° |
| 2026-05-09 08:04 | 41.61179 | 19.71512 | 4913 ft | 278 kts | 183° |
| 2026-05-09 08:04 | 41.59311 | 19.70917 | 4289 ft | 277 kts | 198° |
| 2026-05-09 08:04 | 41.58058 | 19.70491 | 3890 ft | 274 kts | 191° |
| 2026-05-09 08:04 | 41.56207 | 19.70259 | 3327 ft | 258 kts | 181° |
| 2026-05-09 08:05 | 41.54507 | 19.70322 | 3103 ft | 232 kts | 176° |
| 2026-05-09 08:05 | 41.52920 | 19.70530 | 2830 ft | 234 kts | 174° |
| 2026-05-09 08:05 | 41.51247 | 19.70851 | 1897 ft | 245 kts | 171° |
| 2026-05-09 08:05 | 41.49637 | 19.71280 | 1499 ft | 229 kts | 169° |
| 2026-05-09 08:06 | 41.48154 | 19.71624 | 1305 ft | 204 kts | 176° |
| 2026-05-09 08:06 | 41.46811 | 19.71681 | 1226 ft | 179 kts | 182° |
| 2026-05-09 08:06 | 41.45649 | 19.71635 | 1023 ft | 159 kts | 180° |
| 2026-05-09 08:06 | 41.44593 | 19.71713 | 770 ft | 143 kts | 175° |
| 2026-05-09 08:07 | 41.43618 | 19.71794 | 428 ft | 141 kts | 173° |
| 2026-05-09 08:07 | 41.42665 | 19.71912 | 155 ft | 132 kts | 170° |
| 2026-05-09 08:07 | 41.41833 | 19.72017 | 124 ft | 109 kts | 175° |
| 2026-05-09 08:07 | 41.41152 | 19.72098 | 127 ft | 89 kts | 174° |
| 2026-05-09 08:08 | 41.40792 | 19.72146 | 132 ft | 29 kts | 174° |
| 2026-05-09 08:08 | 41.40707 | 19.72132 | 133 ft | 11 kts | 212° |
| 2026-05-09 08:08 | 41.40666 | 19.72045 | 131 ft | 12 kts | 253° |
| 2026-05-09 08:08 | 41.40647 | 19.71943 | 129 ft | 11 kts | 259° |
| 2026-05-09 08:09 | 41.40631 | 19.71842 | 129 ft | 11 kts | 259° |
| 2026-05-09 08:09 | 41.40666 | 19.71767 | 131 ft | 11 kts | 343° |
| 2026-05-09 08:09 | 41.40738 | 19.71752 | 131 ft | 10 kts | 352° |
| 2026-05-09 08:09 | 41.40808 | 19.71738 | 130 ft | 10 kts | 349° |
| 2026-05-09 08:10 | 41.40876 | 19.71721 | 130 ft | 10 kts | 349° |
| 2026-05-09 08:10 | 41.40942 | 19.71706 | 129 ft | 10 kts | 350° |
| 2026-05-09 08:10 | 41.41006 | 19.71692 | 129 ft | 9 kts | 351° |
| 2026-05-09 08:10 | 41.41042 | 19.71686 | 129 ft | 0 kts | 354° |
| 2026-05-09 08:11 | 41.41043 | 19.71686 | 129 ft | 1 kts | 356° |
| 2026-05-09 08:11 | 41.41080 | 19.71685 | 131 ft | 11 kts | 359° |
| 2026-05-09 08:11 | 41.41172 | 19.71676 | 131 ft | 8 kts | 354° |
| 2026-05-09 08:11 | 41.41216 | 19.71670 | 131 ft | 0 kts | 354° |
| 2026-05-09 08:12 | 41.41296 | 19.71660 | 130 ft | 14 kts | 355° |
| 2026-05-09 08:12 | 41.41407 | 19.71646 | 127 ft | 16 kts | 355° |
| 2026-05-09 08:12 | 41.41519 | 19.71631 | 129 ft | 16 kts | 353° |
| 2026-05-09 08:13 | 41.41626 | 19.71616 | 129 ft | 15 kts | 354° |
| 2026-05-09 08:13 | 41.41729 | 19.71602 | 130 ft | 15 kts | 354° |
| 2026-05-09 08:13 | 41.41828 | 19.71589 | 130 ft | 14 kts | 354° |
| 2026-05-09 08:13 | 41.41923 | 19.71577 | 130 ft | 13 kts | 354° |
| 2026-05-09 08:14 | 41.42013 | 19.71565 | 131 ft | 13 kts | 354° |
| 2026-05-09 08:14 | 41.42096 | 19.71554 | 131 ft | 10 kts | 354° |
| 2026-05-09 08:14 | 41.42144 | 19.71514 | 127 ft | 4 kts | 281° |
| 2026-05-09 08:14 | 41.42144 | 19.71486 | 128 ft | 3 kts | 268° |
| 2026-05-09 08:15 | 41.42143 | 19.71477 | 129 ft | 0 kts | 268° |